Buoy 48770

sailwx.info

Track history (hours):
 
Tides and Currents Weather Stations Pressure Air Temp Water Temp Dewpoint Dewpoint Depression Visibility Wind Speed Wind Dir Waves Ship Positions

Drifting buoy 48770

Last reported at 2018-Aug-21 03:00 UTC. Time now 2018-Aug-21 03:54 UTC.
Position N 78°10' W 015°08'.

Barometer 1013.1 mb
Air temperature 0.4 ° C

Date/timePositionNaut miles runAvg speedWind from/ knotsBaromVisibWave heightAir tempDewpointWater temp
2018-Aug-21 03:00N 78°10' W 015°08'1 0.6 1013.1 0.4
2018-Aug-21 02:00N 78°10' W 015°08'0 0.1 1012.8 0.4
2018-Aug-21 01:00N 78°10' W 015°07'1 0.6 1012.5 0.5
2018-Aug-21 00:00N 78°11' W 015°07'0 0.0 1012.5 0.8
2018-Aug-20 23:00N 78°11' W 015°07'0 0.0 1012.1 0.9
2018-Aug-20 22:00N 78°11' W 015°07'0 0.0 1011.9 1.0
2018-Aug-20 21:00N 78°11' W 015°07'0 0.0 1011.4 1.0
2018-Aug-20 20:00N 78°11' W 015°07'1 0.6 1011.4 1.3
2018-Aug-20 19:00N 78°10' W 015°07'0 0.1 1011.4
2018-Aug-20 18:00N 78°10' W 015°06'0 0.1 1011.6 2.1
2018-Aug-20 17:00N 78°10' W 015°05'0 0.1 1011.7 3.0
2018-Aug-20 16:00N 78°10' W 015°05'0 0.1 1011.8 3.8
2018-Aug-20 15:00N 78°10' W 015°04'0 0.1 1012.2 5.1
2018-Aug-20 14:00N 78°10' W 015°04'0 0.1 1011.9 4.3
2018-Aug-20 13:00N 78°10' W 015°03'0 0.0 1011.2 2.8
2018-Aug-20 12:00N 78°10' W 015°03'0 0.1 1010.7 2.0
2018-Aug-20 11:00N 78°10' W 015°02'0 0.0 1010.0 1.8
2018-Aug-20 10:00N 78°10' W 015°02'0 0.0 1010.5 2.3
2018-Aug-20 09:00N 78°10' W 015°02'0 0.0 1011.0 1.4
2018-Aug-20 08:00N 78°10' W 015°02'0 0.0 1010.7 0.4
2018-Aug-20 07:00N 78°10' W 015°02'1 0.6 1009.9 -0.2
2018-Aug-20 06:00N 78°10' W 015°02'0 0.1 1009.3 -0.9
2018-Aug-20 05:00N 78°10' W 015°02'0 0.2 1009.8 -0.2
2018-Aug-20 04:00N 78°10' W 015°01'0 0.1 1009.4 -1.2
2018-Aug-20 03:00N 78°10' W 015°00'0 0.2 1009.0 -1.6
2018-Aug-20 02:00N 78°10' W 014°59'1 0.6 1009.4 -1.3
2018-Aug-20 01:00N 78°10' W 014°58'0 0.1 1009.2 -1.1
2018-Aug-20 00:00N 78°10' W 014°58'0 0.1 1009.5 -0.5
2018-Aug-19 23:00N 78°10' W 014°57'0 0.1 1009.8 0.5
2018-Aug-19 22:00N 78°10' W 014°58'0 0.0 1009.6 1.1
2018-Aug-19 21:00N 78°10' W 014°58'0 0.1 1009.6 1.8
2018-Aug-19 20:00N 78°10' W 014°58'0 0.0 1009.7 2.1
2018-Aug-19 19:00N 78°10' W 014°58'0 0.1 1009.8 1.7
2018-Aug-19 18:00N 78°10' W 014°58'1 0.6 1010.0 2.0
2018-Aug-19 17:00N 78°10' W 014°56'0 0.1 1010.1 2.3
2018-Aug-19 16:00N 78°10' W 014°56'0 0.2 1009.7 1.8
2018-Aug-19 15:00N 78°10' W 014°55'0 0.1 1010.0 1.9
2018-Aug-19 14:00N 78°10' W 014°54'0 0.1 1010.0 2.2
2018-Aug-19 13:00N 78°10' W 014°53'1 0.6 1010.3 2.7
2018-Aug-19 12:00N 78°10' W 014°52'0 0.0 1010.2 2.2
2018-Aug-19 11:00N 78°10' W 014°52'0 0.0 1009.9
2018-Aug-19 10:00N 78°10' W 014°52'0 0.0 1009.0
2018-Aug-19 09:00N 78°10' W 014°52'0 0.0 1008.8 2.0
2018-Aug-19 08:00N 78°10' W 014°52'1 0.6 1008.9
2018-Aug-19 07:00N 78°10' W 014°52'0 0.1 1009.5 1.8
2018-Aug-19 06:00N 78°10' W 014°52'0 0.1 1009.5 2.6
2018-Aug-19 05:00N 78°10' W 014°51'0 0.2 1009.2
2018-Aug-19 04:00N 78°10' W 014°50'0 0.1 1009.4 1.5
2018-Aug-19 03:00N 78°10' W 014°49'0 0.2 1009.3 0.7
2018-Aug-19 02:00N 78°10' W 014°48'0 0.1 1009.1 0.1
2018-Aug-19 01:00N 78°10' W 014°47'0 0.0 1009.0 -0.0
2018-Aug-19 00:00N 78°10' W 014°47'0 0.1 1009.1 0.4
2018-Aug-18 23:00N 78°10' W 014°47'0 0.0 1008.8 0.5
2018-Aug-18 22:00N 78°10' W 014°47'0 0.0 1008.9 0.5
2018-Aug-18 21:00N 78°10' W 014°47'0 0.1 1008.8 0.5
2018-Aug-18 20:00N 78°10' W 014°46'1 0.6 1008.3 0.5
2018-Aug-18 19:00N 78°09' W 014°46'0 0.2 1008.6 0.6
2018-Aug-18 18:00N 78°09' W 014°45'0 0.1 1008.3 0.6
2018-Aug-18 17:00N 78°09' W 014°44'0 0.2 1007.9 0.8
2018-Aug-18 16:00N 78°09' W 014°43'0 0.2 1007.7 0.6
2018-Aug-18 15:00N 78°09' W 014°42'1 0.6 1008.1 0.4
2018-Aug-18 14:00N 78°10' W 014°41'0 0.2 1008.4 0.4
2018-Aug-18 13:00N 78°10' W 014°40'0 0.0 1008.1 -0.1
2018-Aug-18 12:00N 78°10' W 014°40'1 0.6 1007.9 -0.1
2018-Aug-18 11:00N 78°10' W 014°40'0 0.0 1008.5
2018-Aug-18 10:00N 78°10' W 014°40'0 0.0 1008.5 1.1
2018-Aug-18 09:00N 78°10' W 014°40'0 0.1 1008.6 1.3
2018-Aug-18 08:00N 78°10' W 014°40'0 0.0 1008.2 1.1
2018-Aug-18 07:00N 78°10' W 014°40'0 0.0 1008.1 1.0
2018-Aug-18 06:00N 78°10' W 014°40'1 0.6 1007.8 0.9
2018-Aug-18 05:00N 78°10' W 014°40'0 0.0 1007.6 0.8
2018-Aug-18 04:00N 78°10' W 014°40'0 0.2 1007.5 0.7
2018-Aug-18 03:00N 78°10' W 014°39'0 0.1 1007.6 0.8
2018-Aug-18 02:00N 78°10' W 014°38'0 0.1 1007.5 0.8
2018-Aug-18 01:00N 78°10' W 014°38'0 0.2 1007.6 0.8
2018-Aug-18 00:00N 78°10' W 014°37'1 0.6 1007.6 0.8
2018-Aug-17 23:00N 78°09' W 014°37'0 0.1 1007.6 1.1
2018-Aug-17 22:00N 78°09' W 014°36'0 0.0 1007.7 1.6
2018-Aug-17 21:00N 78°09' W 014°36'0 0.0 1007.8 2.0
2018-Aug-17 20:00N 78°09' W 014°36'1 0.3 1007.9 2.3
2018-Aug-17 18:00N 78°08' W 014°36'0 0.0 1008.4 2.8
2018-Aug-17 17:00N 78°08' W 014°36'1 0.6 1008.6
2018-Aug-17 16:00N 78°08' W 014°35'0 0.1 1008.8 2.8
2018-Aug-17 15:00N 78°08' W 014°35'0 0.1 1009.2 3.1
2018-Aug-17 14:00N 78°08' W 014°34'0 0.2 1009.5 2.8
2018-Aug-17 13:00N 78°08' W 014°33'0 0.1 1009.5 2.2
2018-Aug-17 12:00N 78°08' W 014°32'1 0.6 1009.8 2.1
2018-Aug-17 11:00N 78°07' W 014°32'0 0.1 1010.1 1.3
2018-Aug-17 10:00N 78°07' W 014°32'0 0.0 1010.3 0.8
2018-Aug-17 09:00N 78°07' W 014°32'0 0.1 1010.0 0.4
2018-Aug-17 08:00N 78°07' W 014°33'1 0.6 1010.1 0.1
2018-Aug-17 07:00N 78°07' W 014°34'0 0.0 1010.1 0.1
2018-Aug-17 06:00N 78°07' W 014°34'1 0.6 1010.1 -0.2
2018-Aug-17 05:00N 78°06' W 014°34'0 0.1 1010.0 -1.1
2018-Aug-17 04:00N 78°06' W 014°35'1 0.6 1009.9 -1.8
2018-Aug-17 03:00N 78°05' W 014°35'0 0.0 1010.0 -2.5
2018-Aug-17 02:00N 78°05' W 014°35'0 0.1 1009.7 -3.0
2018-Aug-17 01:00N 78°05' W 014°34'1 0.6 1010.1 -2.9
2018-Aug-17 00:00N 78°05' W 014°34'0 0.0 1009.9 -3.1
2018-Aug-16 23:00N 78°05' W 014°34'0 0.0 1009.9 -2.9
2018-Aug-16 22:00N 78°05' W 014°34'0 0.0 1010.3 -2.2
2018-Aug-16 21:00N 78°05' W 014°34'1 0.6 1010.6 -1.7
2018-Aug-16 20:00N 78°04' W 014°34'0 0.1 1010.9 -1.0
2018-Aug-16 19:00N 78°04' W 014°34'1 0.6 1011.1 -1.1
2018-Aug-16 18:00N 78°04' W 014°34'0 0.0 1011.2 -1.0
2018-Aug-16 17:00N 78°04' W 014°34'0 0.1 1011.8 -0.5
2018-Aug-16 16:00N 78°04' W 014°34'0 0.0 1012.3 -0.3
2018-Aug-16 15:00N 78°04' W 014°34'1 0.6 1012.4 -0.2
2018-Aug-16 14:00N 78°03' W 014°35'0 0.0 1012.7 -0.2
2018-Aug-16 13:00N 78°03' W 014°35'0 0.1 1012.8 -0.3
2018-Aug-16 12:00N 78°03' W 014°35'0 0.0 1012.8 -0.3
2018-Aug-16 11:00N 78°03' W 014°35'1 0.6 1012.8 -0.2
2018-Aug-16 10:00N 78°02' W 014°36'0 0.1 1012.8 -0.5
2018-Aug-16 09:00N 78°02' W 014°35'0 0.0 1012.7 0.2
2018-Aug-16 08:00N 78°02' W 014°35'1 0.6 1012.8 -0.4
2018-Aug-16 07:00N 78°02' W 014°35'0 0.1 1012.6 -0.8
2018-Aug-16 06:00N 78°02' W 014°35'0 0.0 1012.3 -2.4
2018-Aug-16 05:00N 78°02' W 014°35'1 0.6 1011.9 -3.1
2018-Aug-16 04:00N 78°01' W 014°34'0 0.0 1011.8 -3.7
2018-Aug-16 03:00N 78°01' W 014°34'0 0.0 1012.0 -4.3
2018-Aug-16 02:00N 78°01' W 014°34'0 0.0 1011.9 -4.3
2018-Aug-16 01:00N 78°01' W 014°34'0 0.1 1012.0 -4.4
2018-Aug-16 00:00N 78°01' W 014°34'1 0.6 1012.0 -3.9
2018-Aug-15 23:00N 78°01' W 014°33'0 0.1 1012.4 -3.4
2018-Aug-15 22:00N 78°01' W 014°32'0 0.2 1012.2 -2.5
2018-Aug-15 21:00N 78°01' W 014°31'0 0.0 1011.8 -0.6
2018-Aug-15 20:00N 78°01' W 014°31'0 0.1 1011.7 -0.1
2018-Aug-15 19:00N 78°01' W 014°31'0 0.0 1011.5 0.1
2018-Aug-15 18:00N 78°01' W 014°31'1 0.6 1011.8 -0.1
2018-Aug-15 17:00N 78°00' W 014°30'0 0.0 1012.1 -0.0
2018-Aug-15 16:00N 78°00' W 014°30'0 0.0 1012.1 0.5
2018-Aug-15 15:00N 78°00' W 014°30'0 0.1 1012.0 2.6
2018-Aug-15 14:00N 78°00' W 014°29'0 0.0 1011.8 2.7
2018-Aug-15 13:00N 78°00' W 014°29'0 0.0 1011.5 1.0
2018-Aug-15 12:00N 78°00' W 014°29'0 0.0 1011.3 0.5
2018-Aug-15 11:00N 78°00' W 014°29'0 0.1 1011.1 0.4
2018-Aug-15 10:00N 78°00' W 014°29'0 0.1 1010.7 0.8
2018-Aug-15 09:00N 78°00' W 014°28'1 0.6 1010.6 0.5
2018-Aug-15 08:00N 77°59' W 014°28'0 0.1 1010.4 0.6
2018-Aug-15 07:00N 77°59' W 014°28'0 0.1 1010.0 -1.5
2018-Aug-15 06:00N 77°59' W 014°27'0 0.0 1009.6 -1.9
2018-Aug-15 05:00N 77°59' W 014°27'0 0.0 1009.1 -2.0
2018-Aug-15 04:00N 77°59' W 014°27'1 0.6 1009.6 -1.5
2018-Aug-15 03:00N 77°59' W 014°27'0 0.0 1009.8 -1.2
2018-Aug-15 02:00N 77°59' W 014°27'0 0.0 1009.9 -1.3
2018-Aug-15 01:00N 77°59' W 014°27'0 0.1 1009.8 -1.4
2018-Aug-15 00:00N 77°59' W 014°26'0 0.0 1009.9 -1.4
2018-Aug-14 23:00N 77°59' W 014°26'0 0.0 1010.0 -1.4
2018-Aug-14 22:00N 77°59' W 014°26'0 0.1 1010.1 -1.1
2018-Aug-14 21:00N 77°59' W 014°26'0 0.1 1010.3 -0.9
2018-Aug-14 20:00N 77°59' W 014°26'1 0.6 1010.6 -0.5
2018-Aug-14 19:00N 77°58' W 014°26'0 0.0 1010.6 -0.6
2018-Aug-14 18:00N 77°58' W 014°26'0 0.1 1010.9 -0.6
2018-Aug-14 17:00N 77°58' W 014°27'0 0.1 1011.1 -0.2
2018-Aug-14 16:00N 77°58' W 014°28'1 0.6 1011.3 -0.1
2018-Aug-14 15:00N 77°58' W 014°28'0 0.0 1011.7 1.2
2018-Aug-14 14:00N 77°58' W 014°28'0 0.0 1012.0 2.2
2018-Aug-14 13:00N 77°58' W 014°28'0 0.0 1012.2 2.1
2018-Aug-14 12:00N 77°58' W 014°28'0 0.1 1012.6 1.9
2018-Aug-14 11:00N 77°58' W 014°27'0 0.1 1012.7 1.7
2018-Aug-14 10:00N 77°58' W 014°26'0 0.0 1012.8 2.0
2018-Aug-14 09:00N 77°58' W 014°26'0 0.1 1012.7 -0.0
2018-Aug-14 08:00N 77°58' W 014°26'0 0.0 1012.6 -0.7
2018-Aug-14 07:00N 77°58' W 014°26'0 0.1 1012.8 -1.4
2018-Aug-14 06:00N 77°58' W 014°26'0 0.1 1012.7 -1.8
2018-Aug-14 05:00N 77°58' W 014°27'1 0.6 1013.0 -1.8
2018-Aug-14 04:00N 77°57' W 014°27'0 0.1 1012.9 -2.3
2018-Aug-14 03:00N 77°57' W 014°28'0 0.0 1013.4
2018-Aug-14 02:00N 77°57' W 014°28'0 0.0 1013.4 -2.3
2018-Aug-14 01:00N 77°57' W 014°28'1 0.6 1013.7 -2.0
2018-Aug-14 00:00N 77°56' W 014°28'0 0.1 1014.0 -1.6
2018-Aug-13 23:00N 77°56' W 014°27'0 0.0 1014.1 -1.6
2018-Aug-13 22:00N 77°56' W 014°27'0 0.0 1014.4 -1.4
2018-Aug-13 21:00N 77°56' W 014°27'0 0.0 1014.6 -1.4
2018-Aug-13 20:00N 77°56' W 014°27'0 0.0 1014.9 -1.1
2018-Aug-13 19:00N 77°56' W 014°27'0 0.1 1015.3 -0.8
2018-Aug-13 18:00N 77°56' W 014°28'0 0.1 1015.5 -0.4
2018-Aug-13 17:00N 77°56' W 014°28'0 0.1 1015.7 -0.2
2018-Aug-13 16:00N 77°56' W 014°29'0 0.1 1016.4 0.2
2018-Aug-13 15:00N 77°56' W 014°29'1 0.6 1016.6 0.4
2018-Aug-13 14:00N 77°56' W 014°29'0 0.1 1016.9 0.1
2018-Aug-13 13:00N 77°56' W 014°30'0 0.1 1017.1 0.6
2018-Aug-13 12:00N 77°56' W 014°29'   1017.0 -0.3
2018-Aug-11 03:00N 77°54' W 014°42'   1017.2 -2.8
Track history (hours):
 
Tides and Currents Weather Stations Pressure Air Temp Water Temp Dewpoint Dewpoint Depression Visibility Wind Speed Wind Dir Waves Ship Positions

Drifting buoy 48770

Last reported at 2018-Aug-21 03:00 UTC. Time now 2018-Aug-21 03:54 UTC.
Position N 78°10' W 015°08'.

Barometer 1013.1 mb
Air temperature 0.4 ° C

Date/timePositionNaut miles runAvg speedWind from/ knotsBaromVisibWave heightAir tempDewpointWater temp
2018-Aug-21 03:00N 78°10' W 015°08'1 0.6 1013.1 0.4
2018-Aug-21 02:00N 78°10' W 015°08'0 0.1 1012.8 0.4
2018-Aug-21 01:00N 78°10' W 015°07'1 0.6 1012.5 0.5
2018-Aug-21 00:00N 78°11' W 015°07'0 0.0 1012.5 0.8
2018-Aug-20 23:00N 78°11' W 015°07'0 0.0 1012.1 0.9
2018-Aug-20 22:00N 78°11' W 015°07'0 0.0 1011.9 1.0
2018-Aug-20 21:00N 78°11' W 015°07'0 0.0 1011.4 1.0
2018-Aug-20 20:00N 78°11' W 015°07'1 0.6 1011.4 1.3
2018-Aug-20 19:00N 78°10' W 015°07'0 0.1 1011.4
2018-Aug-20 18:00N 78°10' W 015°06'0 0.1 1011.6 2.1
2018-Aug-20 17:00N 78°10' W 015°05'0 0.1 1011.7 3.0
2018-Aug-20 16:00N 78°10' W 015°05'0 0.1 1011.8 3.8
2018-Aug-20 15:00N 78°10' W 015°04'0 0.1 1012.2 5.1
2018-Aug-20 14:00N 78°10' W 015°04'0 0.1 1011.9 4.3
2018-Aug-20 13:00N 78°10' W 015°03'0 0.0 1011.2 2.8
2018-Aug-20 12:00N 78°10' W 015°03'0 0.1 1010.7 2.0
2018-Aug-20 11:00N 78°10' W 015°02'0 0.0 1010.0 1.8
2018-Aug-20 10:00N 78°10' W 015°02'0 0.0 1010.5 2.3
2018-Aug-20 09:00N 78°10' W 015°02'0 0.0 1011.0 1.4
2018-Aug-20 08:00N 78°10' W 015°02'0 0.0 1010.7 0.4
2018-Aug-20 07:00N 78°10' W 015°02'1 0.6 1009.9 -0.2
2018-Aug-20 06:00N 78°10' W 015°02'0 0.1 1009.3 -0.9
2018-Aug-20 05:00N 78°10' W 015°02'0 0.2 1009.8 -0.2
2018-Aug-20 04:00N 78°10' W 015°01'0 0.1 1009.4 -1.2
2018-Aug-20 03:00N 78°10' W 015°00'0 0.2 1009.0 -1.6
2018-Aug-20 02:00N 78°10' W 014°59'1 0.6 1009.4 -1.3
2018-Aug-20 01:00N 78°10' W 014°58'0 0.1 1009.2 -1.1
2018-Aug-20 00:00N 78°10' W 014°58'0 0.1 1009.5 -0.5
2018-Aug-19 23:00N 78°10' W 014°57'0 0.1 1009.8 0.5
2018-Aug-19 22:00N 78°10' W 014°58'0 0.0 1009.6 1.1
2018-Aug-19 21:00N 78°10' W 014°58'0 0.1 1009.6 1.8
2018-Aug-19 20:00N 78°10' W 014°58'0 0.0 1009.7 2.1
2018-Aug-19 19:00N 78°10' W 014°58'0 0.1 1009.8 1.7
2018-Aug-19 18:00N 78°10' W 014°58'1 0.6 1010.0 2.0
2018-Aug-19 17:00N 78°10' W 014°56'0 0.1 1010.1 2.3
2018-Aug-19 16:00N 78°10' W 014°56'0 0.2 1009.7 1.8
2018-Aug-19 15:00N 78°10' W 014°55'0 0.1 1010.0 1.9
2018-Aug-19 14:00N 78°10' W 014°54'0 0.1 1010.0 2.2
2018-Aug-19 13:00N 78°10' W 014°53'1 0.6 1010.3 2.7
2018-Aug-19 12:00N 78°10' W 014°52'0 0.0 1010.2 2.2
2018-Aug-19 11:00N 78°10' W 014°52'0 0.0 1009.9
2018-Aug-19 10:00N 78°10' W 014°52'0 0.0 1009.0
2018-Aug-19 09:00N 78°10' W 014°52'0 0.0 1008.8 2.0
2018-Aug-19 08:00N 78°10' W 014°52'1 0.6 1008.9
2018-Aug-19 07:00N 78°10' W 014°52'0 0.1 1009.5 1.8
2018-Aug-19 06:00N 78°10' W 014°52'0 0.1 1009.5 2.6
2018-Aug-19 05:00N 78°10' W 014°51'0 0.2 1009.2
2018-Aug-19 04:00N 78°10' W 014°50'0 0.1 1009.4 1.5
2018-Aug-19 03:00N 78°10' W 014°49'0 0.2 1009.3 0.7
2018-Aug-19 02:00N 78°10' W 014°48'0 0.1 1009.1 0.1
2018-Aug-19 01:00N 78°10' W 014°47'0 0.0 1009.0 -0.0
2018-Aug-19 00:00N 78°10' W 014°47'0 0.1 1009.1 0.4
2018-Aug-18 23:00N 78°10' W 014°47'0 0.0 1008.8 0.5
2018-Aug-18 22:00N 78°10' W 014°47'0 0.0 1008.9 0.5
2018-Aug-18 21:00N 78°10' W 014°47'0 0.1 1008.8 0.5
2018-Aug-18 20:00N 78°10' W 014°46'1 0.6 1008.3 0.5
2018-Aug-18 19:00N 78°09' W 014°46'0 0.2 1008.6 0.6
2018-Aug-18 18:00N 78°09' W 014°45'0 0.1 1008.3 0.6
2018-Aug-18 17:00N 78°09' W 014°44'0 0.2 1007.9 0.8
2018-Aug-18 16:00N 78°09' W 014°43'0 0.2 1007.7 0.6
2018-Aug-18 15:00N 78°09' W 014°42'1 0.6 1008.1 0.4
2018-Aug-18 14:00N 78°10' W 014°41'0 0.2 1008.4 0.4
2018-Aug-18 13:00N 78°10' W 014°40'0 0.0 1008.1 -0.1
2018-Aug-18 12:00N 78°10' W 014°40'1 0.6 1007.9 -0.1
2018-Aug-18 11:00N 78°10' W 014°40'0 0.0 1008.5
2018-Aug-18 10:00N 78°10' W 014°40'0 0.0 1008.5 1.1
2018-Aug-18 09:00N 78°10' W 014°40'0 0.1 1008.6 1.3
2018-Aug-18 08:00N 78°10' W 014°40'0 0.0 1008.2 1.1
2018-Aug-18 07:00N 78°10' W 014°40'0 0.0 1008.1 1.0
2018-Aug-18 06:00N 78°10' W 014°40'1 0.6 1007.8 0.9
2018-Aug-18 05:00N 78°10' W 014°40'0 0.0 1007.6 0.8
2018-Aug-18 04:00N 78°10' W 014°40'0 0.2 1007.5 0.7
2018-Aug-18 03:00N 78°10' W 014°39'0 0.1 1007.6 0.8
2018-Aug-18 02:00N 78°10' W 014°38'0 0.1 1007.5 0.8
2018-Aug-18 01:00N 78°10' W 014°38'0 0.2 1007.6 0.8
2018-Aug-18 00:00N 78°10' W 014°37'1 0.6 1007.6 0.8
2018-Aug-17 23:00N 78°09' W 014°37'0 0.1 1007.6 1.1
2018-Aug-17 22:00N 78°09' W 014°36'0 0.0 1007.7 1.6
2018-Aug-17 21:00N 78°09' W 014°36'0 0.0 1007.8 2.0
2018-Aug-17 20:00N 78°09' W 014°36'1 0.3 1007.9 2.3
2018-Aug-17 18:00N 78°08' W 014°36'0 0.0 1008.4 2.8
2018-Aug-17 17:00N 78°08' W 014°36'1 0.6 1008.6
2018-Aug-17 16:00N 78°08' W 014°35'0 0.1 1008.8 2.8
2018-Aug-17 15:00N 78°08' W 014°35'0 0.1 1009.2 3.1
2018-Aug-17 14:00N 78°08' W 014°34'0 0.2 1009.5 2.8
2018-Aug-17 13:00N 78°08' W 014°33'0 0.1 1009.5 2.2
2018-Aug-17 12:00N 78°08' W 014°32'1 0.6 1009.8 2.1
2018-Aug-17 11:00N 78°07' W 014°32'0 0.1 1010.1 1.3
2018-Aug-17 10:00N 78°07' W 014°32'0 0.0 1010.3 0.8
2018-Aug-17 09:00N 78°07' W 014°32'0 0.1 1010.0 0.4
2018-Aug-17 08:00N 78°07' W 014°33'1 0.6 1010.1 0.1
2018-Aug-17 07:00N 78°07' W 014°34'0 0.0 1010.1 0.1
2018-Aug-17 06:00N 78°07' W 014°34'1 0.6 1010.1 -0.2
2018-Aug-17 05:00N 78°06' W 014°34'0 0.1 1010.0 -1.1
2018-Aug-17 04:00N 78°06' W 014°35'1 0.6 1009.9 -1.8
2018-Aug-17 03:00N 78°05' W 014°35'0 0.0 1010.0 -2.5
2018-Aug-17 02:00N 78°05' W 014°35'0 0.1 1009.7 -3.0
2018-Aug-17 01:00N 78°05' W 014°34'1 0.6 1010.1 -2.9
2018-Aug-17 00:00N 78°05' W 014°34'0 0.0 1009.9 -3.1
2018-Aug-16 23:00N 78°05' W 014°34'0 0.0 1009.9 -2.9
2018-Aug-16 22:00N 78°05' W 014°34'0 0.0 1010.3 -2.2
2018-Aug-16 21:00N 78°05' W 014°34'1 0.6 1010.6 -1.7
2018-Aug-16 20:00N 78°04' W 014°34'0 0.1 1010.9 -1.0
2018-Aug-16 19:00N 78°04' W 014°34'1 0.6 1011.1 -1.1
2018-Aug-16 18:00N 78°04' W 014°34'0 0.0 1011.2 -1.0
2018-Aug-16 17:00N 78°04' W 014°34'0 0.1 1011.8 -0.5
2018-Aug-16 16:00N 78°04' W 014°34'0 0.0 1012.3 -0.3
2018-Aug-16 15:00N 78°04' W 014°34'1 0.6 1012.4 -0.2
2018-Aug-16 14:00N 78°03' W 014°35'0 0.0 1012.7 -0.2
2018-Aug-16 13:00N 78°03' W 014°35'0 0.1 1012.8 -0.3
2018-Aug-16 12:00N 78°03' W 014°35'0 0.0 1012.8 -0.3
2018-Aug-16 11:00N 78°03' W 014°35'1 0.6 1012.8 -0.2
2018-Aug-16 10:00N 78°02' W 014°36'0 0.1 1012.8 -0.5
2018-Aug-16 09:00N 78°02' W 014°35'0 0.0 1012.7 0.2
2018-Aug-16 08:00N 78°02' W 014°35'1 0.6 1012.8 -0.4
2018-Aug-16 07:00N 78°02' W 014°35'0 0.1 1012.6 -0.8
2018-Aug-16 06:00N 78°02' W 014°35'0 0.0 1012.3 -2.4
2018-Aug-16 05:00N 78°02' W 014°35'1 0.6 1011.9 -3.1
2018-Aug-16 04:00N 78°01' W 014°34'0 0.0 1011.8 -3.7
2018-Aug-16 03:00N 78°01' W 014°34'0 0.0 1012.0 -4.3
2018-Aug-16 02:00N 78°01' W 014°34'0 0.0 1011.9 -4.3
2018-Aug-16 01:00N 78°01' W 014°34'0 0.1 1012.0 -4.4
2018-Aug-16 00:00N 78°01' W 014°34'1 0.6 1012.0 -3.9
2018-Aug-15 23:00N 78°01' W 014°33'0 0.1 1012.4 -3.4
2018-Aug-15 22:00N 78°01' W 014°32'0 0.2 1012.2 -2.5
2018-Aug-15 21:00N 78°01' W 014°31'0 0.0 1011.8 -0.6
2018-Aug-15 20:00N 78°01' W 014°31'0 0.1 1011.7 -0.1
2018-Aug-15 19:00N 78°01' W 014°31'0 0.0 1011.5 0.1
2018-Aug-15 18:00N 78°01' W 014°31'1 0.6 1011.8 -0.1
2018-Aug-15 17:00N 78°00' W 014°30'0 0.0 1012.1 -0.0
2018-Aug-15 16:00N 78°00' W 014°30'0 0.0 1012.1 0.5
2018-Aug-15 15:00N 78°00' W 014°30'0 0.1 1012.0 2.6
2018-Aug-15 14:00N 78°00' W 014°29'0 0.0 1011.8 2.7
2018-Aug-15 13:00N 78°00' W 014°29'0 0.0 1011.5 1.0
2018-Aug-15 12:00N 78°00' W 014°29'0 0.0 1011.3 0.5
2018-Aug-15 11:00N 78°00' W 014°29'0 0.1 1011.1 0.4
2018-Aug-15 10:00N 78°00' W 014°29'0 0.1 1010.7 0.8
2018-Aug-15 09:00N 78°00' W 014°28'1 0.6 1010.6 0.5
2018-Aug-15 08:00N 77°59' W 014°28'0 0.1 1010.4 0.6
2018-Aug-15 07:00N 77°59' W 014°28'0 0.1 1010.0 -1.5
2018-Aug-15 06:00N 77°59' W 014°27'0 0.0 1009.6 -1.9
2018-Aug-15 05:00N 77°59' W 014°27'0 0.0 1009.1 -2.0
2018-Aug-15 04:00N 77°59' W 014°27'1 0.6 1009.6 -1.5
2018-Aug-15 03:00N 77°59' W 014°27'0 0.0 1009.8 -1.2
2018-Aug-15 02:00N 77°59' W 014°27'0 0.0 1009.9 -1.3
2018-Aug-15 01:00N 77°59' W 014°27'0 0.1 1009.8 -1.4
2018-Aug-15 00:00N 77°59' W 014°26'0 0.0 1009.9 -1.4
2018-Aug-14 23:00N 77°59' W 014°26'0 0.0 1010.0 -1.4
2018-Aug-14 22:00N 77°59' W 014°26'0 0.1 1010.1 -1.1
2018-Aug-14 21:00N 77°59' W 014°26'0 0.1 1010.3 -0.9
2018-Aug-14 20:00N 77°59' W 014°26'1 0.6 1010.6 -0.5
2018-Aug-14 19:00N 77°58' W 014°26'0 0.0 1010.6 -0.6
2018-Aug-14 18:00N 77°58' W 014°26'0 0.1 1010.9 -0.6
2018-Aug-14 17:00N 77°58' W 014°27'0 0.1 1011.1 -0.2
2018-Aug-14 16:00N 77°58' W 014°28'1 0.6 1011.3 -0.1
2018-Aug-14 15:00N 77°58' W 014°28'0 0.0 1011.7 1.2
2018-Aug-14 14:00N 77°58' W 014°28'0 0.0 1012.0 2.2
2018-Aug-14 13:00N 77°58' W 014°28'0 0.0 1012.2 2.1
2018-Aug-14 12:00N 77°58' W 014°28'0 0.1 1012.6 1.9
2018-Aug-14 11:00N 77°58' W 014°27'0 0.1 1012.7 1.7
2018-Aug-14 10:00N 77°58' W 014°26'0 0.0 1012.8 2.0
2018-Aug-14 09:00N 77°58' W 014°26'0 0.1 1012.7 -0.0
2018-Aug-14 08:00N 77°58' W 014°26'0 0.0 1012.6 -0.7
2018-Aug-14 07:00N 77°58' W 014°26'0 0.1 1012.8 -1.4
2018-Aug-14 06:00N 77°58' W 014°26'0 0.1 1012.7 -1.8
2018-Aug-14 05:00N 77°58' W 014°27'1 0.6 1013.0 -1.8
2018-Aug-14 04:00N 77°57' W 014°27'0 0.1 1012.9 -2.3
2018-Aug-14 03:00N 77°57' W 014°28'0 0.0 1013.4
2018-Aug-14 02:00N 77°57' W 014°28'0 0.0 1013.4 -2.3
2018-Aug-14 01:00N 77°57' W 014°28'1 0.6 1013.7 -2.0
2018-Aug-14 00:00N 77°56' W 014°28'0 0.1 1014.0 -1.6
2018-Aug-13 23:00N 77°56' W 014°27'0 0.0 1014.1 -1.6
2018-Aug-13 22:00N 77°56' W 014°27'0 0.0 1014.4 -1.4
2018-Aug-13 21:00N 77°56' W 014°27'0 0.0 1014.6 -1.4
2018-Aug-13 20:00N 77°56' W 014°27'0 0.0 1014.9 -1.1
2018-Aug-13 19:00N 77°56' W 014°27'0 0.1 1015.3 -0.8
2018-Aug-13 18:00N 77°56' W 014°28'0 0.1 1015.5 -0.4
2018-Aug-13 17:00N 77°56' W 014°28'0 0.1 1015.7 -0.2
2018-Aug-13 16:00N 77°56' W 014°29'0 0.1 1016.4 0.2
2018-Aug-13 15:00N 77°56' W 014°29'1 0.6 1016.6 0.4
2018-Aug-13 14:00N 77°56' W 014°29'0 0.1 1016.9 0.1
2018-Aug-13 13:00N 77°56' W 014°30'0 0.1 1017.1 0.6
2018-Aug-13 12:00N 77°56' W 014°29'   1017.0 -0.3
2018-Aug-11 03:00N 77°54' W 014°42'   1017.2 -2.8

Dump ship's entire track history